createdAt,value
2022-09-06T00:01:23.275Z,20.51
2022-09-06T00:03:50.517Z,20.54
2022-09-06T00:06:18.957Z,20.52
2022-09-06T00:08:47.501Z,20.60
2022-09-06T00:11:15.558Z,20.58
2022-09-06T00:13:42.082Z,18.52
2022-09-06T00:16:17.366Z,20.47
2022-09-06T00:18:44.821Z,19.65
2022-09-06T00:21:18.098Z,19.61
2022-09-06T00:23:44.522Z,19.42
2022-09-06T00:26:11.350Z,20.01
2022-09-06T00:28:38.578Z,19.50
2022-09-06T00:31:13.628Z,18.32
2022-09-06T00:33:40.779Z,18.83
2022-09-06T00:36:08.855Z,19.98
2022-09-06T00:38:35.541Z,17.31
2022-09-06T00:41:02.603Z,19.92
2022-09-06T00:43:29.146Z,19.85
2022-09-06T00:45:56.177Z,19.76
2022-09-06T00:48:23.515Z,18.09
2022-09-06T00:50:56.003Z,16.17
2022-09-06T00:53:23.367Z,18.16
2022-09-06T00:55:50.027Z,19.35
2022-09-06T00:58:16.768Z,19.45
2022-09-06T01:00:44.873Z,17.68
2022-09-06T01:03:14.388Z,18.84
2022-09-06T01:05:58.583Z,18.56
2022-09-06T01:08:37.481Z,18.81
2022-09-06T01:11:22.580Z,18.74
2022-09-06T01:13:57.271Z,18.16
2022-09-06T01:16:42.605Z,18.81
2022-09-06T01:19:23.242Z,16.96
2022-09-06T01:21:49.677Z,18.81
2022-09-06T01:24:34.728Z,18.78
2022-09-06T01:27:20.034Z,18.76
2022-09-06T01:29:52.939Z,17.82
2022-09-06T01:32:40.625Z,18.69
2022-09-06T01:35:19.158Z,18.44
2022-09-06T01:37:45.810Z,17.41
2022-09-06T01:40:12.354Z,15.46
2022-09-06T01:42:41.186Z,17.02
2022-09-06T01:45:51.253Z,18.39
2022-09-06T01:48:27.214Z,16.92
2022-09-06T01:51:04.974Z,16.12
2022-09-06T01:53:43.371Z,18.28
2022-09-06T01:56:29.880Z,18.31
2022-09-06T01:59:16.071Z,18.29
2022-09-06T02:02:02.309Z,18.26
2022-09-06T02:04:36.563Z,18.31
2022-09-06T02:07:16.323Z,18.25
2022-09-06T02:09:48.390Z,17.57
2022-09-06T02:12:18.786Z,13.32
2022-09-06T02:15:06.569Z,18.14
2022-09-06T02:17:38.850Z,18.11
2022-09-06T02:20:17.879Z,16.82
2022-09-06T02:22:46.773Z,16.81
2022-09-06T02:25:20.751Z,17.97
2022-09-06T02:27:47.589Z,17.76
2022-09-06T02:30:14.142Z,16.48
2022-09-06T02:32:48.308Z,17.91
2022-09-06T02:35:16.648Z,17.15
2022-09-06T02:37:43.701Z,16.25
2022-09-06T02:40:11.794Z,16.81
2022-09-06T02:42:39.868Z,16.01
2022-09-06T02:45:06.761Z,16.94
2022-09-06T02:47:33.171Z,15.94
2022-09-06T02:49:59.622Z,16.81
2022-09-06T02:52:26.087Z,15.98
2022-09-06T02:54:52.570Z,17.70
2022-09-06T02:57:19.061Z,16.06
2022-09-06T02:59:46.266Z,15.82
2022-09-06T03:02:12.809Z,15.94
2022-09-06T03:04:39.318Z,17.89
2022-09-06T03:07:05.875Z,16.66
2022-09-06T03:09:32.376Z,17.40
2022-09-06T03:11:58.871Z,16.09
2022-09-06T03:14:25.355Z,17.15
2022-09-06T03:16:51.829Z,16.40
2022-09-06T03:19:20.040Z,17.54
2022-09-06T03:21:46.538Z,15.71
2022-09-06T03:24:13.021Z,16.68
2022-09-06T03:26:39.561Z,17.38
2022-09-06T03:29:06.411Z,17.31
2022-09-06T03:31:32.889Z,17.61
2022-09-06T03:33:59.954Z,17.43
2022-09-06T03:36:26.466Z,17.39
2022-09-06T03:38:54.091Z,15.65
2022-09-06T03:41:20.578Z,17.48
2022-09-06T03:43:46.986Z,17.17
2022-09-06T03:46:13.642Z,15.79
2022-09-06T03:48:40.331Z,15.73
2022-09-06T03:51:06.854Z,16.52
2022-09-06T03:53:33.467Z,17.45
2022-09-06T03:56:00.077Z,17.09
2022-09-06T03:58:30.370Z,16.97
2022-09-06T04:01:08.988Z,17.23
2022-09-06T04:03:36.957Z,16.99
2022-09-06T04:06:05.005Z,16.54
2022-09-06T04:08:32.305Z,16.85
2022-09-06T04:10:59.534Z,16.95
2022-09-06T04:13:28.108Z,16.34
2022-09-06T04:15:54.635Z,16.06
2022-09-06T04:18:22.402Z,16.71
2022-09-06T04:20:50.694Z,17.06
2022-09-06T04:23:18.227Z,16.97
2022-09-06T04:25:52.414Z,16.77
2022-09-06T04:28:19.633Z,16.91
2022-09-06T04:30:52.876Z,16.89
2022-09-06T04:33:20.436Z,15.18
2022-09-06T04:35:50.463Z,16.77
2022-09-06T04:38:17.052Z,14.62
2022-09-06T04:40:43.563Z,16.65
2022-09-06T04:43:09.952Z,15.02
2022-09-06T04:45:36.633Z,15.52
2022-09-06T04:48:03.369Z,16.17
2022-09-06T04:50:29.876Z,14.90
2022-09-06T04:52:56.381Z,14.21
2022-09-06T04:55:22.860Z,15.21
2022-09-06T04:57:51.265Z,16.40
2022-09-06T05:00:18.332Z,16.50
2022-09-06T05:02:45.166Z,15.26
2022-09-06T05:05:11.646Z,15.42
2022-09-06T05:07:38.109Z,15.31
2022-09-06T05:10:05.194Z,16.22
2022-09-06T05:12:31.675Z,15.52
2022-09-06T05:14:58.207Z,15.95
2022-09-06T05:17:24.671Z,15.77
2022-09-06T05:19:51.188Z,15.90
2022-09-06T05:22:17.706Z,15.70
2022-09-06T05:24:44.874Z,16.78
2022-09-06T05:27:12.643Z,16.81
2022-09-06T05:29:39.085Z,16.24
2022-09-06T05:32:05.690Z,16.90
2022-09-06T05:34:32.218Z,16.01
2022-09-06T05:36:58.669Z,17.01
2022-09-06T05:39:25.156Z,16.55
2022-09-06T05:41:51.673Z,16.82
2022-09-06T05:44:18.118Z,17.21
2022-09-06T05:46:45.908Z,16.49
2022-09-06T05:49:13.310Z,17.34
2022-09-06T05:51:40.326Z,16.62
2022-09-06T05:54:07.939Z,17.52
2022-09-06T05:56:34.426Z,16.93
2022-09-06T05:59:00.906Z,17.62
2022-09-06T06:01:30.497Z,17.65
2022-09-06T06:04:00.077Z,17.73
2022-09-06T06:06:29.329Z,17.78
2022-09-06T06:08:56.330Z,17.82
2022-09-06T06:11:23.213Z,17.42
2022-09-06T06:13:50.589Z,17.48
2022-09-06T06:16:19.875Z,18.06
2022-09-06T06:18:51.280Z,18.19
2022-09-06T06:21:21.630Z,18.24
2022-09-06T06:23:54.742Z,16.83
2022-09-06T06:26:22.321Z,18.31
2022-09-06T06:28:49.016Z,17.20
2022-09-06T06:31:15.680Z,18.53
2022-09-06T06:33:42.560Z,18.15
2022-09-06T06:36:14.889Z,18.72
2022-09-06T06:38:45.819Z,18.91
2022-09-06T06:41:14.511Z,18.65
2022-09-06T06:43:41.188Z,19.19
2022-09-06T06:46:09.010Z,19.06
2022-09-06T06:48:43.288Z,19.33
2022-09-06T06:51:15.200Z,19.40
2022-09-06T06:53:41.771Z,18.78
2022-09-06T06:56:20.185Z,19.36
2022-09-06T06:58:48.773Z,19.75
2022-09-06T07:01:16.449Z,19.07
2022-09-06T07:03:43.150Z,19.26
2022-09-06T07:08:42.380Z,19.79
2022-09-06T07:11:11.338Z,20.24
2022-09-06T07:13:38.193Z,20.34
2022-09-06T07:16:12.425Z,20.54
2022-09-06T07:18:42.379Z,20.48
2022-09-06T07:24:06.405Z,20.64
2022-09-06T07:26:34.965Z,21.01
2022-09-06T07:29:03.674Z,21.01
2022-09-06T07:34:19.373Z,20.15
2022-09-06T07:36:45.862Z,21.42
2022-09-06T07:39:12.600Z,21.09
2022-09-06T07:41:39.015Z,21.04
2022-09-06T07:44:05.494Z,21.59
2022-09-06T07:46:32.139Z,21.65
2022-09-06T07:48:58.710Z,21.63
2022-09-06T07:51:25.199Z,21.91
2022-09-06T07:54:07.442Z,21.78
2022-09-06T07:56:41.910Z,22.19
2022-09-06T07:59:09.291Z,22.30
2022-09-06T08:01:40.065Z,21.32
2022-09-06T08:04:15.146Z,22.55
2022-09-06T08:09:30.463Z,22.69
2022-09-06T08:11:57.019Z,22.61
2022-09-06T08:14:23.465Z,22.94
2022-09-06T08:16:50.411Z,22.48
2022-09-06T08:19:18.239Z,21.52
2022-09-06T08:21:44.670Z,22.66
2022-09-06T08:24:11.274Z,23.37
2022-09-06T08:26:40.390Z,23.24
2022-09-06T08:29:08.627Z,23.31
2022-09-06T08:31:37.550Z,23.43
2022-09-06T08:34:04.095Z,22.27
2022-09-06T08:36:31.459Z,23.58
2022-09-06T08:38:59.322Z,23.16
2022-09-06T08:41:29.448Z,23.67
2022-09-06T08:47:04.236Z,24.02
2022-09-06T08:49:33.801Z,24.12
2022-09-06T08:52:23.088Z,24.18
2022-09-06T08:55:16.476Z,24.25
2022-09-06T08:57:53.755Z,24.13
2022-09-06T09:00:20.785Z,23.47
2022-09-06T09:02:52.398Z,24.62
2022-09-06T09:05:24.144Z,24.28
2022-09-06T09:08:05.047Z,24.47
2022-09-06T09:10:40.461Z,24.96
2022-09-06T09:13:16.026Z,24.99
2022-09-06T09:15:42.567Z,23.98
2022-09-06T09:18:09.082Z,25.33
2022-09-06T09:20:37.967Z,23.83
2022-09-06T09:23:04.507Z,24.96
2022-09-06T09:25:32.861Z,25.64
2022-09-06T09:28:00.240Z,25.65
2022-09-06T09:30:47.659Z,25.91
2022-09-06T09:33:29.754Z,25.96
2022-09-06T09:35:59.430Z,25.97
2022-09-06T09:38:32.833Z,26.15
2022-09-06T09:41:05.683Z,26.25
2022-09-06T09:43:39.122Z,26.00
2022-09-06T09:46:35.643Z,26.23
2022-09-06T09:49:28.765Z,26.54
2022-09-06T09:52:12.155Z,26.74
2022-09-06T09:54:42.551Z,26.87
2022-09-06T09:57:12.105Z,26.87
2022-09-06T10:00:01.008Z,26.11
2022-09-06T10:02:32.398Z,27.24
2022-09-06T10:05:17.153Z,27.41
2022-09-06T10:07:49.094Z,27.24
2022-09-06T10:10:27.734Z,27.12
2022-09-06T10:13:30.131Z,26.35
2022-09-06T10:16:03.178Z,26.71
2022-09-06T10:18:39.419Z,27.90
2022-09-06T10:21:10.043Z,27.88
2022-09-06T10:27:01.085Z,28.00
2022-09-06T10:29:52.943Z,28.21
2022-09-06T10:32:48.159Z,28.28
2022-09-06T10:35:31.619Z,27.71
2022-09-06T10:38:32.335Z,28.08
2022-09-06T10:41:26.469Z,28.36
2022-09-06T10:44:01.399Z,28.48
2022-09-06T10:46:29.541Z,28.31
2022-09-06T10:48:56.562Z,28.60
2022-09-06T10:51:25.981Z,28.67
2022-09-06T10:53:57.446Z,28.43
2022-09-06T10:56:42.241Z,28.68
2022-09-06T11:02:20.763Z,28.91
2022-09-06T11:10:37.721Z,28.69
2022-09-06T11:13:18.512Z,29.12
2022-09-06T11:16:05.003Z,29.04
2022-09-06T11:18:41.734Z,29.11
2022-09-06T11:21:47.335Z,29.30
2022-09-06T11:24:42.261Z,29.43
2022-09-06T11:27:23.551Z,28.98
2022-09-06T11:29:56.391Z,29.13
2022-09-06T11:32:43.167Z,29.48
2022-09-06T11:35:22.670Z,29.11
2022-09-06T11:38:00.445Z,28.58
2022-09-06T11:40:29.895Z,29.42
2022-09-06T11:42:58.593Z,29.93
2022-09-06T11:45:46.689Z,30.03
2022-09-06T11:48:34.457Z,29.85
2022-09-06T11:51:06.685Z,29.26
2022-09-06T11:53:48.483Z,30.05
2022-09-06T11:56:30.482Z,30.07
2022-09-06T11:59:23.660Z,30.02
2022-09-06T12:02:31.683Z,30.26
2022-09-06T12:05:01.163Z,30.18
2022-09-06T12:07:29.483Z,30.26
2022-09-06T12:09:56.098Z,29.57
2022-09-06T12:12:46.693Z,30.51
2022-09-06T12:15:26.477Z,30.69
2022-09-06T12:17:53.056Z,30.79
2022-09-06T12:20:47.731Z,30.79
2022-09-06T12:23:35.887Z,30.81
2022-09-06T12:26:07.378Z,29.90
2022-09-06T12:28:47.271Z,30.73
2022-09-06T12:31:28.687Z,30.65
2022-09-06T12:33:56.965Z,30.86
2022-09-06T12:36:29.722Z,30.78
2022-09-06T12:39:08.628Z,29.42
2022-09-06T12:41:43.457Z,30.85
2022-09-06T12:44:11.350Z,30.47
2022-09-06T12:46:39.890Z,30.69
2022-09-06T12:49:10.357Z,31.15
2022-09-06T12:51:38.970Z,30.95
2022-09-06T12:54:26.521Z,30.16
2022-09-06T12:56:53.771Z,31.15
2022-09-06T12:59:27.264Z,30.77
2022-09-06T13:02:05.063Z,30.95
2022-09-06T13:04:42.569Z,30.90
2022-09-06T13:07:12.879Z,30.61
2022-09-06T13:09:44.109Z,30.86
2022-09-06T13:12:26.159Z,30.96
2022-09-06T13:14:54.949Z,31.01
2022-09-06T13:17:29.577Z,31.07
2022-09-06T13:19:58.135Z,31.05
2022-09-06T13:22:42.956Z,30.93
2022-09-06T13:25:23.162Z,30.82
2022-09-06T13:27:51.758Z,31.30
2022-09-06T13:30:41.992Z,30.59
2022-09-06T13:33:24.354Z,30.61
2022-09-06T13:36:05.198Z,31.01
2022-09-06T13:38:38.636Z,31.36
2022-09-06T13:41:15.758Z,30.54
2022-09-06T13:43:45.668Z,31.30
2022-09-06T13:46:12.551Z,30.71
2022-09-06T13:48:39.462Z,30.85
2022-09-06T13:51:07.867Z,31.25
2022-09-06T13:53:35.271Z,31.45
2022-09-06T13:56:02.014Z,31.66
2022-09-06T13:58:29.754Z,31.72
2022-09-06T14:00:56.914Z,31.35
2022-09-06T14:03:31.022Z,30.35
2022-09-06T14:06:00.135Z,31.67
2022-09-06T14:08:38.870Z,31.80
2022-09-06T14:11:14.122Z,31.84
2022-09-06T14:13:40.569Z,31.90
2022-09-06T14:16:07.168Z,30.01
2022-09-06T14:18:33.939Z,31.34
2022-09-06T14:21:00.430Z,31.63
2022-09-06T14:23:27.340Z,31.15
2022-09-06T14:25:58.300Z,31.31
2022-09-06T14:28:25.411Z,29.27
2022-09-06T14:30:54.430Z,30.99
2022-09-06T14:33:21.433Z,30.97
2022-09-06T14:35:48.640Z,30.73
2022-09-06T14:38:15.553Z,30.80
2022-09-06T14:40:45.521Z,30.83
2022-09-06T14:43:12.055Z,30.98
2022-09-06T14:45:38.643Z,30.33
2022-09-06T14:48:05.664Z,31.12
2022-09-06T14:50:32.198Z,30.56
2022-09-06T14:52:59.116Z,31.17
2022-09-06T14:55:25.738Z,31.18
2022-09-06T14:57:52.282Z,30.58
2022-09-06T15:00:18.913Z,30.75
2022-09-06T15:02:45.413Z,30.95
2022-09-06T15:05:12.002Z,31.09
2022-09-06T15:07:38.466Z,30.94
2022-09-06T15:10:05.350Z,31.20
2022-09-06T15:12:32.334Z,31.08
2022-09-06T15:14:59.061Z,30.85
2022-09-06T15:17:25.489Z,30.86
2022-09-06T15:19:52.108Z,30.95
2022-09-06T15:22:18.531Z,30.85
2022-09-06T15:24:45.181Z,29.88
2022-09-06T15:27:11.791Z,30.92
2022-09-06T15:29:38.447Z,30.91
2022-09-06T15:32:05.005Z,30.54
2022-09-06T15:34:31.479Z,30.42
2022-09-06T15:36:57.902Z,30.28
2022-09-06T15:39:24.508Z,30.44
2022-09-06T15:41:51.529Z,29.31
2022-09-06T15:44:20.654Z,30.16
2022-09-06T15:46:52.417Z,29.84
2022-09-06T15:49:28.100Z,29.87
2022-09-06T15:51:56.498Z,29.77
2022-09-06T15:54:41.964Z,29.83
2022-09-06T15:57:08.765Z,29.39
2022-09-06T15:59:35.194Z,29.69
2022-09-06T16:02:01.805Z,29.76
2022-09-06T16:04:28.232Z,29.79
2022-09-06T16:06:54.836Z,29.40
2022-09-06T16:09:21.231Z,29.63
2022-09-06T16:11:47.930Z,29.39
2022-09-06T16:14:15.746Z,29.29
2022-09-06T16:16:43.372Z,29.15
2022-09-06T16:19:12.327Z,28.92
2022-09-06T16:21:41.606Z,29.23
2022-09-06T16:24:11.106Z,28.04
2022-09-06T16:26:40.964Z,29.14
2022-09-06T16:29:09.413Z,29.08
2022-09-06T16:31:39.998Z,29.01
2022-09-06T16:34:11.561Z,28.93
2022-09-06T16:36:38.662Z,27.75
2022-09-06T16:39:06.356Z,28.74
2022-09-06T16:41:42.190Z,28.69
2022-09-06T16:44:15.933Z,28.64
2022-09-06T16:46:47.893Z,28.19
2022-09-06T16:49:17.012Z,28.55
2022-09-06T16:51:44.002Z,27.59
2022-09-06T16:54:11.081Z,28.36
2022-09-06T16:56:38.890Z,27.26
2022-09-06T16:59:07.950Z,28.00
2022-09-06T17:01:36.977Z,28.07
2022-09-06T17:04:04.004Z,28.04
2022-09-06T17:06:31.302Z,27.90
2022-09-06T17:08:58.794Z,27.85
2022-09-06T17:11:25.997Z,27.78
2022-09-06T17:13:54.302Z,27.69
2022-09-06T17:16:40.233Z,27.25
2022-09-06T17:19:08.072Z,27.78
2022-09-06T17:21:34.591Z,27.40
2022-09-06T17:24:04.500Z,27.69
2022-09-06T17:26:33.350Z,27.62
2022-09-06T17:29:00.149Z,27.60
2022-09-06T17:31:30.447Z,27.62
2022-09-06T17:33:57.311Z,27.45
2022-09-06T17:36:27.971Z,26.86
2022-09-06T17:39:00.593Z,27.44
2022-09-06T17:41:49.994Z,26.34
2022-09-06T17:44:20.475Z,26.95
2022-09-06T17:47:08.874Z,26.91
2022-09-06T17:49:34.939Z,26.96
2022-09-06T17:52:04.614Z,26.89
2022-09-06T17:54:34.610Z,26.79
2022-09-06T17:57:01.073Z,26.73
2022-09-06T17:59:35.045Z,26.58
2022-09-06T18:02:02.635Z,25.42
2022-09-06T18:04:29.379Z,26.46
2022-09-06T18:06:55.825Z,26.38
2022-09-06T18:09:22.466Z,26.36
2022-09-06T18:11:49.174Z,26.26
2022-09-06T18:14:20.921Z,25.03
2022-09-06T18:16:49.277Z,26.05
2022-09-06T18:19:17.449Z,25.83
2022-09-06T18:21:44.135Z,25.49
2022-09-06T18:24:13.722Z,25.62
2022-09-06T18:26:41.600Z,25.58
2022-09-06T18:29:12.199Z,25.32
2022-09-06T18:31:39.927Z,25.17
2022-09-06T18:34:08.057Z,25.22
2022-09-06T18:36:35.381Z,25.12
2022-09-06T18:39:04.258Z,23.82
2022-09-06T18:41:51.177Z,25.00
2022-09-06T18:44:18.074Z,24.89
2022-09-06T18:46:44.955Z,24.90
2022-09-06T18:49:14.447Z,24.57
2022-09-06T18:51:41.703Z,24.76
2022-09-06T18:54:09.128Z,23.50
2022-09-06T18:56:35.792Z,24.57
2022-09-06T18:59:02.731Z,24.61
2022-09-06T19:01:35.444Z,24.52
2022-09-06T19:04:03.885Z,24.66
2022-09-06T19:06:32.700Z,24.64
2022-09-06T19:09:02.275Z,23.48
2022-09-06T19:11:29.542Z,24.57
2022-09-06T19:13:57.533Z,24.52
2022-09-06T19:16:29.353Z,24.39
2022-09-06T19:18:57.138Z,24.24
2022-09-06T19:21:25.668Z,24.19
2022-09-06T19:24:01.235Z,24.08
2022-09-06T19:26:31.419Z,24.13
2022-09-06T19:29:00.270Z,24.18
2022-09-06T19:31:32.217Z,24.24
2022-09-06T19:33:59.380Z,24.03
2022-09-06T19:36:28.430Z,24.54
2022-09-06T19:39:05.101Z,23.68
2022-09-06T19:41:35.649Z,24.72
2022-09-06T19:44:05.461Z,24.79
2022-09-06T19:46:32.043Z,24.12
2022-09-06T19:48:58.825Z,24.72
2022-09-06T19:51:25.891Z,24.92
2022-09-06T19:53:57.234Z,24.91
2022-09-06T19:56:32.827Z,24.95
2022-09-06T19:59:03.988Z,23.84
2022-09-06T20:01:33.028Z,24.93
2022-09-06T20:04:02.855Z,24.88
2022-09-06T20:06:30.932Z,24.65
2022-09-06T20:08:59.133Z,24.68
2022-09-06T20:11:32.807Z,24.69
2022-09-06T20:14:00.834Z,24.58
2022-09-06T20:16:28.248Z,24.43
2022-09-06T20:18:55.200Z,24.19
2022-09-06T20:21:22.528Z,24.30
2022-09-06T20:23:54.001Z,23.92
2022-09-06T20:26:23.980Z,24.15
2022-09-06T20:28:59.045Z,22.38
2022-09-06T20:31:28.902Z,23.98
2022-09-06T20:33:56.294Z,24.04
2022-09-06T20:36:23.456Z,23.91
2022-09-06T20:38:50.609Z,24.01
2022-09-06T20:41:19.829Z,23.03
2022-09-06T20:43:51.400Z,24.04
2022-09-06T20:46:19.333Z,24.02
2022-09-06T20:48:46.405Z,24.03
2022-09-06T20:51:21.116Z,23.74
2022-09-06T20:53:52.748Z,23.89
2022-09-06T20:56:22.662Z,23.99
2022-09-06T20:58:51.119Z,23.81
2022-09-06T21:01:23.120Z,23.93
2022-09-06T21:03:56.046Z,22.67
2022-09-06T21:06:24.882Z,22.85
2022-09-06T21:08:52.433Z,23.58
2022-09-06T21:11:22.488Z,23.64
2022-09-06T21:13:51.947Z,22.30
2022-09-06T21:16:24.858Z,23.46
2022-09-06T21:18:53.402Z,23.52
2022-09-06T21:21:36.767Z,23.46
2022-09-06T21:24:41.560Z,23.48
2022-09-06T21:27:19.399Z,23.40
2022-09-06T21:29:50.176Z,23.45
2022-09-06T21:32:19.830Z,23.38
2022-09-06T21:35:27.206Z,23.33
2022-09-06T21:38:18.507Z,23.34
2022-09-06T21:40:52.177Z,23.14
2022-09-06T21:43:54.988Z,23.46
2022-09-06T21:46:37.737Z,23.12
2022-09-06T21:49:42.212Z,23.63
2022-09-06T21:55:53.147Z,23.60
2022-09-06T21:58:26.387Z,23.57
2022-09-06T22:01:30.284Z,23.51
2022-09-06T22:04:21.149Z,23.46
2022-09-06T22:07:01.214Z,23.43
2022-09-06T22:09:56.760Z,22.10
2022-09-06T22:12:24.124Z,23.15
2022-09-06T22:14:50.806Z,23.32
2022-09-06T22:17:20.939Z,23.38
2022-09-06T22:19:48.035Z,23.32
2022-09-06T22:22:14.706Z,22.95
2022-09-06T22:24:41.150Z,21.38
2022-09-06T22:27:07.625Z,22.88
2022-09-06T22:29:34.039Z,22.99
2022-09-06T22:32:02.974Z,22.92
2022-09-06T22:34:30.272Z,22.69
2022-09-06T22:36:56.753Z,22.80
2022-09-06T22:39:23.241Z,23.03
2022-09-06T22:41:49.845Z,22.97
2022-09-06T22:44:16.371Z,22.87
2022-09-06T22:46:43.014Z,22.78
2022-09-06T22:49:09.571Z,22.63
2022-09-06T22:51:36.185Z,22.51
2022-09-06T22:54:03.185Z,22.30
2022-09-06T22:56:29.692Z,22.27
2022-09-06T22:58:56.313Z,21.11
2022-09-06T23:01:23.165Z,21.47
2022-09-06T23:03:50.572Z,20.95
2022-09-06T23:06:17.165Z,22.20
2022-09-06T23:08:43.734Z,22.19
2022-09-06T23:11:13.221Z,22.09
2022-09-06T23:13:43.791Z,21.65
2022-09-06T23:16:18.719Z,20.76
2022-09-06T23:18:46.307Z,20.43
2022-09-06T23:21:16.074Z,18.64
2022-09-06T23:23:42.714Z,19.35
2022-09-06T23:26:11.634Z,18.98
2022-09-06T23:28:39.169Z,19.00
2022-09-06T23:31:07.778Z,18.87
2022-09-06T23:33:37.652Z,18.85
2022-09-06T23:36:14.715Z,18.77
2022-09-06T23:38:41.949Z,18.77
2022-09-06T23:41:10.245Z,18.25
2022-09-06T23:43:37.670Z,18.66
2022-09-06T23:46:05.059Z,18.49
2022-09-06T23:48:32.337Z,18.29
2022-09-06T23:50:58.924Z,18.58
2022-09-06T23:53:25.598Z,18.50
2022-09-06T23:55:52.161Z,18.45
2022-09-06T23:58:18.611Z,17.77
